Plano's Hourly Summary for Sunday, July 8, 2018
Hour Temp
(f)
RH
(%)
Solar Rad.
(MJ/m2)
Rainfall
(in)
Wind
(mph)
7/8/2018 12:00 AM 84 55 0 0 1.1
7/8/2018 1:00 AM 83 57 0 0 1.88
7/8/2018 2:00 AM 81 62 0 0 0.73
7/8/2018 3:00 AM 80 64 0 0 0.12
7/8/2018 4:00 AM 78 68 0 0 0
7/8/2018 5:00 AM 76 76 0 0 0
7/8/2018 6:00 AM 75 81 0 0 0
7/8/2018 7:00 AM 74 83 0.02 0 0.01
7/8/2018 8:00 AM 77 71 0.28 0 0.07
7/8/2018 9:00 AM 80 67 0.94 0 1.37
7/8/2018 10:00 AM 83 59 1.66 0 1.06
7/8/2018 11:00 AM 87 51 2.12 0 0.45
7/8/2018 12:00 PM 88 46 2.35 0 1.44
7/8/2018 1:00 PM 92 43 2.91 0 1.68
7/8/2018 2:00 PM 91 42 2.1 0 1.68
7/8/2018 3:00 PM 94 36 3.3 0 3.2
7/8/2018 4:00 PM 96 34 2.63 0 1.8
7/8/2018 5:00 PM 96 34 2.3 0 2.12
7/8/2018 6:00 PM 94 32 1.37 0 2.8
7/8/2018 7:00 PM 92 33 0.84 0 3.42
7/8/2018 8:00 PM 88 45 0.43 0 3.57
7/8/2018 9:00 PM 85 53 0.03 0 2.2
7/8/2018 10:00 PM 84 57 0 0 1.9
7/8/2018 11:00 PM 82 58 0 0 0.42
Data Summary 85 54 23.28 0.00 1.38